Time,TemperatureF,DewpointF,PressureIn,WindDirection,WindDirectionDegrees,WindSpeedMPH,WindSpeedGustMPH,Humidity,HourlyPrecipIn,Conditions,Clouds,dailyrainin,SoftwareType,DateUTC
2013-10-24 00:08:00,38.2,23.0,30.01,WNW,282,6.0,-999.0,54,-99.99,,,0.00,weatherlink.com 1.10,2013-10-24 06:08:00,
2013-10-24 00:24:00,39.1,23.0,30.01,WNW,284,7.0,-999.0,52,-99.99,,,0.00,weatherlink.com 1.10,2013-10-24 06:24:00,
2013-10-24 00:39:00,38.8,23.0,30.01,West,273,5.0,-999.0,53,-99.99,,,0.00,weatherlink.com 1.10,2013-10-24 06:39:00,
2013-10-24 00:54:00,37.8,22.0,30.00,WSW,254,7.0,-999.0,54,-99.99,,,0.00,weatherlink.com 1.10,2013-10-24 06:54:00,
2013-10-24 01:09:00,38.3,23.0,30.01,West,273,5.0,-999.0,54,-99.99,,,0.00,weatherlink.com 1.10,2013-10-24 07:09:00,
2013-10-24 01:24:00,38.1,23.0,30.01,WSW,257,6.0,-999.0,54,-99.99,,,0.00,weatherlink.com 1.10,2013-10-24 07:24:00,
2013-10-24 01:39:00,37.2,22.0,30.00,WSW,250,6.0,-999.0,55,-99.99,,,0.00,weatherlink.com 1.10,2013-10-24 07:39:00,
2013-10-24 01:55:00,37.8,22.0,30.00,WSW,238,5.0,-999.0,54,-99.99,,,0.00,weatherlink.com 1.10,2013-10-24 07:55:00,
2013-10-24 02:10:00,38.1,23.0,30.00,SW,234,11.0,-999.0,54,-99.99,,,0.00,weatherlink.com 1.10,2013-10-24 08:10:00,
2013-10-24 02:25:00,38.0,22.0,30.00,SW,215,11.0,-999.0,53,-99.99,,,0.00,weatherlink.com 1.10,2013-10-24 08:25:00,
2013-10-24 02:40:00,38.2,23.0,29.99,SW,215,10.0,-999.0,54,-99.99,,,0.00,weatherlink.com 1.10,2013-10-24 08:40:00,
2013-10-24 02:55:00,38.6,22.0,29.99,SW,224,12.0,-999.0,51,-99.99,,,0.00,weatherlink.com 1.10,2013-10-24 08:55:00,
2013-10-24 03:10:00,38.0,21.0,29.98,WSW,253,13.0,-999.0,51,-99.99,,,0.00,weatherlink.com 1.10,2013-10-24 09:10:00,
2013-10-24 03:25:00,37.7,21.0,29.98,SW,230,16.0,-999.0,52,-99.99,,,0.00,weatherlink.com 1.10,2013-10-24 09:25:00,
2013-10-24 03:41:00,37.5,21.0,29.98,SW,230,8.0,-999.0,51,-99.99,,,0.00,weatherlink.com 1.10,2013-10-24 09:41:00,
2013-10-24 03:56:00,37.4,21.0,29.98,WSW,244,8.0,-999.0,52,-99.99,,,0.00,weatherlink.com 1.10,2013-10-24 09:56:00,
2013-10-24 04:11:00,37.7,21.0,29.98,WSW,240,10.0,-999.0,51,-99.99,,,0.00,weatherlink.com 1.10,2013-10-24 10:11:00,
2013-10-24 04:26:00,37.3,21.0,29.98,WSW,248,12.0,-999.0,52,-99.99,,,0.00,weatherlink.com 1.10,2013-10-24 10:26:00,
2013-10-24 04:41:00,37.4,21.0,29.98,WSW,251,10.0,-999.0,51,-99.99,,,0.00,weatherlink.com 1.10,2013-10-24 10:41:00,
2013-10-24 04:56:00,37.3,21.0,29.99,SW,230,10.0,-999.0,51,-99.99,,,0.00,weatherlink.com 1.10,2013-10-24 10:56:00,
2013-10-24 05:11:00,37.5,21.0,29.99,SW,224,7.0,-999.0,51,-99.99,,,0.00,weatherlink.com 1.10,2013-10-24 11:11:00,
2013-10-24 05:27:00,37.3,21.0,29.99,SW,222,14.0,-999.0,52,-99.99,,,0.00,weatherlink.com 1.10,2013-10-24 11:27:00,
2013-10-24 05:42:00,37.4,21.0,29.99,SW,214,10.0,-999.0,52,-99.99,,,0.00,weatherlink.com 1.10,2013-10-24 11:42:00,
2013-10-24 05:57:00,37.4,21.0,29.99,SW,219,10.0,-999.0,52,-99.99,,,0.00,weatherlink.com 1.10,2013-10-24 11:57:00,
2013-10-24 06:12:00,36.9,21.0,29.99,WSW,244,9.0,-999.0,54,-99.99,,,0.00,weatherlink.com 1.10,2013-10-24 12:12:00,
2013-10-24 06:27:00,36.9,21.0,29.99,West,266,8.0,-999.0,54,-99.99,,,0.00,weatherlink.com 1.10,2013-10-24 12:27:00,
2013-10-24 06:43:00,36.4,21.0,29.99,West,267,9.0,-999.0,55,-99.99,,,0.00,weatherlink.com 1.10,2013-10-24 12:43:00,
2013-10-24 09:46:00,40.0,23.0,30.04,SW,223,3.0,-999.0,50,-99.99,,,0.00,weatherlink.com 1.10,2013-10-24 15:46:00,
2013-10-24 10:01:00,40.8,22.0,30.04,SSW,204,7.0,-999.0,48,-99.99,,,0.00,weatherlink.com 1.10,2013-10-24 16:01:00,
2013-10-24 10:17:00,41.3,23.0,30.04,South,191,4.0,-999.0,48,-99.99,,,0.00,weatherlink.com 1.10,2013-10-24 16:17:00,
2013-10-24 10:32:00,42.4,23.0,30.04,SW,220,4.0,-999.0,47,-99.99,,,0.00,weatherlink.com 1.10,2013-10-24 16:32:00,
2013-10-24 10:47:00,43.5,23.0,30.04,SSW,201,6.0,-999.0,45,-99.99,,,0.00,weatherlink.com 1.10,2013-10-24 16:47:00,
2013-10-24 11:02:00,44.5,25.0,30.04,South,174,9.0,-999.0,46,-99.99,,,0.00,weatherlink.com 1.10,2013-10-24 17:02:00,
2013-10-24 11:17:00,44.7,24.0,30.04,South,178,4.0,-999.0,44,-99.99,,,0.00,weatherlink.com 1.10,2013-10-24 17:17:00,
2013-10-24 11:32:00,45.4,24.0,30.04,South,180,8.0,-999.0,43,-99.99,,,0.00,weatherlink.com 1.10,2013-10-24 17:32:00,
2013-10-24 11:48:00,46.1,24.0,30.03,SSE,149,8.0,-999.0,42,-99.99,,,0.00,weatherlink.com 1.10,2013-10-24 17:48:00,
2013-10-24 12:05:00,46.8,24.0,30.03,SSE,162,8.0,-999.0,41,-99.99,,,0.00,weatherlink.com 1.10,2013-10-24 18:05:00,
2013-10-24 12:18:00,48.1,23.0,30.02,South,172,8.0,-999.0,38,-99.99,,,0.00,weatherlink.com 1.10,2013-10-24 18:18:00,
2013-10-24 12:33:00,49.2,24.0,30.02,South,177,7.0,-999.0,38,-99.99,,,0.00,weatherlink.com 1.10,2013-10-24 18:33:00,
2013-10-24 12:48:00,49.8,21.0,30.01,SSW,211,4.0,-999.0,32,-99.99,,,0.00,weatherlink.com 1.10,2013-10-24 18:48:00,
2013-10-24 13:04:00,49.8,24.0,30.00,South,176,5.0,-999.0,36,-99.99,,,0.00,weatherlink.com 1.10,2013-10-24 19:04:00,
2013-10-24 13:19:00,51.2,21.0,30.00,SSW,206,8.0,-999.0,31,-99.99,,,0.00,weatherlink.com 1.10,2013-10-24 19:19:00,
2013-10-24 13:34:00,52.0,21.0,30.00,SW,232,2.0,-999.0,30,-99.99,,,0.00,weatherlink.com 1.10,2013-10-24 19:34:00,
2013-10-24 13:49:00,51.2,24.0,29.99,SW,235,3.0,-999.0,34,-99.99,,,0.00,weatherlink.com 1.10,2013-10-24 19:49:00,
2013-10-24 14:04:00,52.0,23.0,29.98,WNW,295,5.0,-999.0,32,-99.99,,,0.00,weatherlink.com 1.10,2013-10-24 20:04:00,
2013-10-24 14:19:00,50.6,21.0,29.98,SSW,207,5.0,-999.0,31,-99.99,,,0.00,weatherlink.com 1.10,2013-10-24 20:19:00,
2013-10-24 14:35:00,50.8,24.0,29.98,WNW,293,2.0,-999.0,35,-99.99,,,0.00,weatherlink.com 1.10,2013-10-24 20:35:00,
2013-10-24 14:50:00,49.7,27.0,29.98,West,267,6.0,-999.0,41,-99.99,,,0.00,weatherlink.com 1.10,2013-10-24 20:50:00,
2013-10-24 15:05:00,48.7,26.0,29.98,WNW,298,3.0,-999.0,42,-99.99,,,0.00,weatherlink.com 1.10,2013-10-24 21:05:00,
2013-10-24 15:20:00,48.6,26.0,29.98,North,359,1.0,-999.0,41,-99.99,,,0.00,weatherlink.com 1.10,2013-10-24 21:20:00,
2013-10-24 15:35:00,48.3,26.0,29.98,NNW,330,5.0,-999.0,42,-99.99,,,0.00,weatherlink.com 1.10,2013-10-24 21:35:00,
2013-10-24 15:50:00,47.4,26.0,29.98,North,355,3.0,-999.0,43,-99.99,,,0.00,weatherlink.com 1.10,2013-10-24 21:50:00,
2013-10-24 16:06:00,47.3,26.0,29.98,NNW,339,5.0,-999.0,43,-99.99,,,0.00,weatherlink.com 1.10,2013-10-24 22:06:00,
2013-10-24 16:21:00,45.4,26.0,29.98,North,355,6.0,-999.0,47,-99.99,,,0.00,weatherlink.com 1.10,2013-10-24 22:21:00,
2013-10-24 16:36:00,44.2,27.0,29.97,NNW,345,7.0,-999.0,51,-99.99,,,0.00,weatherlink.com 1.10,2013-10-24 22:36:00,
2013-10-24 16:51:00,43.8,27.0,29.97,North,5,6.0,-999.0,52,-99.99,,,0.00,weatherlink.com 1.10,2013-10-24 22:51:00,
2013-10-24 17:06:00,42.9,28.0,29.97,North,4,7.0,-999.0,55,-99.99,,,0.00,weatherlink.com 1.10,2013-10-24 23:06:00,
2013-10-24 17:22:00,42.6,28.0,29.97,NNW,345,7.0,-999.0,56,-99.99,,,0.00,weatherlink.com 1.10,2013-10-24 23:22:00,
2013-10-24 17:37:00,41.3,28.0,29.98,North,5,9.0,-999.0,60,-99.99,,,0.00,weatherlink.com 1.10,2013-10-24 23:37:00,
2013-10-24 17:52:00,41.2,29.0,29.98,North,355,7.0,-999.0,62,-99.99,,,0.00,weatherlink.com 1.10,2013-10-24 23:52:00,
2013-10-24 18:07:00,40.6,30.0,29.98,North,9,8.0,-999.0,66,-99.99,,,0.00,weatherlink.com 1.10,2013-10-25 00:07:00,
2013-10-24 18:22:00,39.8,30.0,29.99,North,7,6.0,-999.0,69,-99.99,,,0.00,weatherlink.com 1.10,2013-10-25 00:22:00,
2013-10-24 18:37:00,39.8,30.0,29.99,North,3,5.0,-999.0,68,-99.99,,,0.00,weatherlink.com 1.10,2013-10-25 00:37:00,
2013-10-24 18:53:00,39.4,30.0,30.00,North,355,4.0,-999.0,68,-99.99,,,0.00,weatherlink.com 1.10,2013-10-25 00:53:00,
2013-10-24 19:08:00,39.5,29.0,30.00,North,3,4.0,-999.0,67,-99.99,,,0.00,weatherlink.com 1.10,2013-10-25 01:08:00,
2013-10-24 19:23:00,40.4,28.0,30.00,North,3,1.0,-999.0,62,-99.99,,,0.00,weatherlink.com 1.10,2013-10-25 01:23:00,
2013-10-24 19:38:00,40.9,29.0,30.01,North,3,0.0,-999.0,62,-99.99,,,0.00,weatherlink.com 1.10,2013-10-25 01:38:00,
2013-10-24 19:53:00,40.7,29.0,30.01,North,3,0.0,-999.0,64,-99.99,,,0.00,weatherlink.com 1.10,2013-10-25 01:53:00,
2013-10-24 20:08:00,40.8,29.0,30.01,North,3,1.0,-999.0,63,-99.99,,,0.00,weatherlink.com 1.10,2013-10-25 02:08:00,
2013-10-24 20:24:00,41.2,29.0,30.00,North,3,2.0,-999.0,62,-99.99,,,0.00,weatherlink.com 1.10,2013-10-25 02:24:00,
2013-10-24 20:39:00,41.1,28.0,30.00,North,3,0.0,-999.0,61,-99.99,,,0.00,weatherlink.com 1.10,2013-10-25 02:39:00,
2013-10-24 20:54:00,40.9,29.0,30.01,North,3,0.0,-999.0,63,-99.99,,,0.00,weatherlink.com 1.10,2013-10-25 02:54:00,
2013-10-24 21:09:00,40.7,29.0,30.01,North,3,3.0,-999.0,63,-99.99,,,0.00,weatherlink.com 1.10,2013-10-25 03:09:00,
2013-10-24 21:24:00,40.7,28.0,30.01,North,3,1.0,-999.0,62,-99.99,,,0.00,weatherlink.com 1.10,2013-10-25 03:24:00,
2013-10-24 21:39:00,40.7,28.0,30.01,North,3,2.0,-999.0,61,-99.99,,,0.00,weatherlink.com 1.10,2013-10-25 03:39:00,
2013-10-24 21:55:00,40.6,29.0,30.01,ESE,118,4.0,-999.0,64,-99.99,,,0.00,weatherlink.com 1.10,2013-10-25 03:55:00,
2013-10-24 22:10:00,40.5,27.0,30.01,ESE,118,2.0,-999.0,60,-99.99,,,0.00,weatherlink.com 1.10,2013-10-25 04:10:00,
2013-10-24 22:25:00,40.9,26.0,30.01,SSW,194,3.0,-999.0,56,-99.99,,,0.00,weatherlink.com 1.10,2013-10-25 04:25:00,
2013-10-24 22:40:00,40.3,27.0,30.01,SSW,201,2.0,-999.0,60,-99.99,,,0.00,weatherlink.com 1.10,2013-10-25 04:40:00,
2013-10-24 22:55:00,40.1,27.0,30.01,SSW,205,6.0,-999.0,61,-99.99,,,0.00,weatherlink.com 1.10,2013-10-25 04:55:00,
2013-10-24 23:10:00,39.7,27.0,30.01,SW,236,6.0,-999.0,60,-99.99,,,0.00,weatherlink.com 1.10,2013-10-25 05:10:00,
2013-10-24 23:25:00,39.5,25.0,30.00,WSW,246,5.0,-999.0,56,-99.99,,,0.00,weatherlink.com 1.10,2013-10-25 05:25:00,
2013-10-24 23:41:00,38.9,26.0,30.00,WSW,255,6.0,-999.0,61,-99.99,,,0.00,weatherlink.com 1.10,2013-10-25 05:41:00,
2013-10-24 23:56:00,39.1,25.0,30.00,WSW,244,5.0,-999.0,58,-99.99,,,0.00,weatherlink.com 1.10,2013-10-25 05:56:00,